Flight Track Log - Related Links

Times and Time Zones

All times are in EDT time to prevent confusion due to time zone crossing. See the AMF1026 flight status page for this flight to view local times or setup timezone preferences in your user account.

Time Position Orientation Groundspeed Altitude Reporting Facility
EDT Latitude Longitude Course Direction KTS MPH feet Rate Location/Type
Thu 08:37:20 PM 42.7278 -73.8136 210° Southwest 147 169 1,100  Level Boston Center
Thu 08:37:57 PM 42.7067 -73.8303 210° Southwest 188 216 2,100 1,828 Climbing Boston Center
Thu 08:39:51 PM 42.7236 -73.9719 279° West 206 237 5,700 1,759 Climbing Boston Center
Thu 08:40:51 PM 42.7100 -74.0450 256° West 201 231 7,200 1,450 Climbing Boston Center
Thu 08:41:51 PM 42.6881 -74.1150 247° West 201 231 8,600 1,450 Climbing Boston Center
Thu 08:42:51 PM 42.6706 -74.1853 251° West 217 250 10,100 1,800 Climbing Boston Center
Thu 08:43:51 PM 42.6567 -74.2667 257° West 212 244 12,200 1,700 Climbing Boston Center
Thu 08:44:51 PM 42.6536 -74.3317 266° West 197 227 13,500 1,400 Climbing Boston Center
Thu 08:45:51 PM 42.6439 -74.4131 261° West 197 227 15,000 1,350 Climbing Boston Center
Thu 08:46:51 PM 42.6239 -74.4717 245° Southwest 197 227 16,200 1,200 Climbing Boston Center
Thu 08:47:51 PM 42.5956 -74.5469 243° Southwest 204 235 17,400 1,100 Climbing Boston Center
Thu 08:48:51 PM 42.5819 -74.6114 254° West 204 235 18,400 1,100 Climbing Boston Center
Thu 08:49:51 PM 42.5656 -74.7011 256° West 215 247 19,600 800 Climbing Boston Center
Thu 08:50:51 PM 42.5536 -74.7767 258° West 215 247 20,000 200 Climbing Boston Center
Thu 08:51:51 PM 42.5328 -74.8661 252° West 230 265 20,000  Level Boston Center
Thu 08:52:51 PM 42.5161 -74.9611 257° West 245 282 20,000  Level Boston Center
Thu 08:53:51 PM 42.5078 -75.0567 263° West 255 293 20,000  Level Boston Center
Thu 08:55:53 PM 42.4575 -75.2392 250° West 264 304 20,000  Level New York Center
Thu 08:56:54 PM 42.4247 -75.3325 245° Southwest 270 311 20,000  Level New York Center
Thu 08:57:55 PM 42.3942 -75.4231 245° Southwest 270 311 20,000  Level New York Center
Thu 08:58:55 PM 42.3594 -75.5131 242° Southwest 270 311 20,000  Level New York Center
Thu 08:59:53 PM 42.3206 -75.6028 240° Southwest 275 316 20,000  Level New York Center
Thu 09:00:53 PM 42.2856 -75.6928 242° Southwest 275 316 20,000  Level New York Center
Thu 09:01:54 PM 42.2547 -75.7828 245° Southwest 275 316 20,000  Level New York Center
Thu 09:02:54 PM 42.2281 -75.8733 248° West 275 316 20,000  Level New York Center
Thu 09:03:53 PM 42.2050 -75.9694 252° West 270 311 20,000  Level New York Center
Thu 09:04:54 PM 42.1803 -76.0597 250° West 264 304 20,000  Level New York Center
Thu 09:05:54 PM 42.1575 -76.1503 251° West 264 304 20,000  Level New York Center
Thu 09:06:55 PM 42.1244 -76.2400 244° Southwest 264 304 20,000  Level New York Center
Thu 09:07:53 PM 42.0911 -76.3294 243° Southwest 269 310 20,000  Level New York Center
Thu 09:08:53 PM 42.0639 -76.4192 248° West 269 310 20,000  Level New York Center
Thu 09:09:52 PM 42.0344 -76.5117 247° West 269 310 20,000  Level New York Center
Thu 09:10:54 PM 42.0028 -76.6094 246° West 269 310 20,000  Level New York Center
Thu 09:11:52 PM 41.9733 -76.6989 246° West 269 310 20,000  Level New York Center
Thu 09:14:22 PM 41.9056 -76.9142 247° West 265 305 20,000  Level Cleveland Center
Thu 09:15:22 PM 41.8750 -77.0050 246° West 265 305 20,000  Level Cleveland Center
Thu 09:16:22 PM 41.8400 -77.0878 240° Southwest 265 305 20,000  Level Cleveland Center
Thu 09:17:22 PM 41.8031 -77.1733 240° Southwest 265 305 20,000  Level Cleveland Center
Thu 09:18:22 PM 41.7636 -77.2536 237° Southwest 265 305 20,000  Level Cleveland Center
Thu 09:19:22 PM 41.7264 -77.3361 239° Southwest 265 305 20,000  Level Cleveland Center
Thu 09:20:22 PM 41.6933 -77.4211 243° Southwest 259 298 20,000  Level Cleveland Center
Thu 09:21:22 PM 41.6539 -77.5067 238° Southwest 264 304 20,000  Level Cleveland Center
Thu 09:22:22 PM 41.6231 -77.5942 245° Southwest 264 304 20,000  Level Cleveland Center
Thu 09:23:22 PM 41.5958 -77.6786 247° West 259 298 20,000  Level Cleveland Center
Thu 09:24:22 PM 41.5731 -77.7686 251° West 254 292 20,000  Level Cleveland Center
Thu 09:25:22 PM 41.5525 -77.8556 252° West 254 292 20,000  Level Cleveland Center
Thu 09:26:22 PM 41.5272 -77.9425 249° West 254 292 20,000  Level Cleveland Center
Thu 09:27:22 PM 41.4917 -78.0272 241° Southwest 254 292 20,000  Level Cleveland Center
Thu 09:28:22 PM 41.4622 -78.1142 246° West 259 298 20,000  Level Cleveland Center
Thu 09:29:22 PM 41.4372 -78.2039 250° West 259 298 20,000  Level Cleveland Center
Thu 09:30:22 PM 41.4139 -78.2933 251° West 259 298 20,000  Level Cleveland Center
Thu 09:31:22 PM 41.3947 -78.3825 254° West 254 292 20,000  Level Cleveland Center
Thu 09:32:22 PM 41.3675 -78.4803 250° West 254 292 20,000  Level Cleveland Center
Thu 09:33:22 PM 41.3419 -78.5697 249° West 249 287 20,000  Level Cleveland Center
Thu 09:34:22 PM 41.3142 -78.6561 247° West 254 292 20,000  Level Cleveland Center
Thu 09:35:22 PM 41.2844 -78.7428 245° Southwest 254 292 20,000  Level Cleveland Center
Thu 09:36:22 PM 41.2525 -78.8294 244° Southwest 254 292 20,000  Level Cleveland Center
Thu 09:37:22 PM 41.2183 -78.9131 242° Southwest 260 299 20,000  Level Cleveland Center
Thu 09:38:22 PM 41.1819 -78.9939 239° Southwest 260 299 20,000  Level Cleveland Center
Thu 09:39:22 PM 41.1517 -79.0747 244° Southwest 265 305 20,000  Level Cleveland Center
Thu 09:40:22 PM 41.1214 -79.1608 245° Southwest 260 299 20,000  Level Cleveland Center
Thu 09:41:22 PM 41.0933 -79.2497 247° West 260 299 20,000  Level Cleveland Center
Thu 09:42:22 PM 41.0631 -79.3356 245° Southwest 260 299 20,000  Level Cleveland Center
Thu 09:43:22 PM 41.0369 -79.4214 248° West 260 299 20,000  Level Cleveland Center
Thu 09:44:22 PM 41.0128 -79.5100 250° West 260 299 20,000  Level Cleveland Center
Thu 09:45:22 PM 40.9947 -79.5983 255° West 254 292 20,000  Level Cleveland Center
Thu 09:46:22 PM 40.9789 -79.6892 257° West 249 287 20,000  Level Cleveland Center
Thu 09:47:22 PM 40.9586 -79.7747 253° West 249 287 20,000  Level Cleveland Center
Thu 09:48:22 PM 40.9300 -79.8603 246° West 244 281 20,000  Level Cleveland Center
Thu 09:49:22 PM 40.8950 -79.9431 241° Southwest 251 289 20,000  Level Cleveland Center
Thu 09:50:22 PM 40.8642 -80.0258 244° Southwest 257 296 20,000  Level Cleveland Center
Thu 09:51:22 PM 40.8417 -80.1056 250° West 257 296 20,000  Level Cleveland Center
Thu 09:52:22 PM 40.8233 -80.1964 255° West 257 296 20,000  Level Cleveland Center
Thu 09:53:22 PM 40.7922 -80.2758 243° Southwest 257 296 20,000  Level Cleveland Center
Thu 09:54:22 PM 40.7467 -80.3611 235° Southwest 257 296 20,000  Level Cleveland Center
Thu 09:55:22 PM 40.7008 -80.4353 231° Southwest 264 304 20,000  Level Cleveland Center
Thu 09:56:22 PM 40.6653 -80.5011 235° Southwest 264 304 20,000  Level Cleveland Center
Thu 09:57:22 PM 40.6258 -80.5858 238° Southwest 269 310 20,000  Level Cleveland Center
Thu 09:58:22 PM 40.5925 -80.6597 239° Southwest 262 302 20,000  Level Cleveland Center
Thu 09:59:22 PM 40.5547 -80.7389 238° Southwest 257 296 20,000  Level Cleveland Center
Thu 10:00:22 PM 40.5150 -80.8153 236° Southwest 257 296 20,000  Level Cleveland Center
Thu 10:01:22 PM 40.4733 -80.8914 234° Southwest 262 302 20,000  Level Cleveland Center
Thu 10:02:22 PM 40.4292 -80.9622 231° Southwest 262 302 20,000  Level Cleveland Center
Thu 10:03:22 PM 40.3872 -81.0356 233° Southwest 262 302 20,000  Level Cleveland Center
Thu 10:04:22 PM 40.3411 -81.1061 229° Southwest 262 302 20,000  Level Cleveland Center
Thu 10:05:22 PM 40.2950 -81.1792 230° Southwest 262 302 20,000  Level Cleveland Center
Thu 10:06:22 PM 40.2508 -81.2494 231° Southwest 257 296 20,000  Level Cleveland Center
Thu 10:08:41 PM 40.1581 -81.4222 235° Southwest 247 284 20,000  Level Indianapolis Center
Thu 10:09:42 PM 40.1242 -81.5014 241° Southwest 247 284 20,000  Level Indianapolis Center
Thu 10:10:43 PM 40.0914 -81.5797 241° Southwest 245 282 20,000  Level Indianapolis Center
Thu 10:11:44 PM 40.0533 -81.6733 242° Southwest 247 284 20,000  Level Indianapolis Center
Thu 10:12:45 PM 40.0217 -81.7522 242° Southwest 244 281 20,000  Level Indianapolis Center
Thu 10:13:46 PM 39.9936 -81.8186 241° Southwest 242 278 20,000  Level Indianapolis Center
Thu 10:14:47 PM 39.9597 -81.8994 241° Southwest 248 285 20,000  Level Indianapolis Center
Thu 10:15:48 PM 39.9222 -81.9936 243° Southwest 250 288 20,000  Level Indianapolis Center
Thu 10:16:49 PM 39.8914 -82.0728 243° Southwest 243 280 20,000  Level Indianapolis Center
Thu 10:17:50 PM 39.8603 -82.1531 243° Southwest 245 282 20,000  Level Indianapolis Center
Thu 10:18:51 PM 39.8292 -82.2314 243° Southwest 241 277 20,000  Level Indianapolis Center
Thu 10:19:52 PM 39.7978 -82.3117 243° Southwest 245 282 20,000  Level Indianapolis Center
Thu 10:20:53 PM 39.7669 -82.3911 243° Southwest 244 281 20,000  Level Indianapolis Center
Thu 10:21:54 PM 39.7400 -82.4739 247° West 247 284 20,000  Level Indianapolis Center
Thu 10:22:55 PM 39.7158 -82.5567 249° West 244 281 20,000  Level Indianapolis Center
Thu 10:23:56 PM 39.6911 -82.6403 249° West 245 282 20,000 -148 Level Indianapolis Center
Thu 10:24:57 PM 39.6681 -82.7236 250° West 242 278 19,700 -738 Descending Indianapolis Center
Thu 10:25:58 PM 39.6450 -82.8097 251° West 249 287 18,500 -1,328 Descending Indianapolis Center
Thu 10:26:59 PM 39.6225 -82.8975 252° West 253 291 17,000 -1,377 Descending Indianapolis Center
Thu 10:28:00 PM 39.6006 -82.9883 253° West 260 299 15,700 -1,230 Descending Indianapolis Center
Thu 10:29:01 PM 39.5803 -83.0761 253° West 254 292 14,500 -1,220 Descending Indianapolis Center
Thu 10:30:03 PM 39.5522 -83.1608 247° West 253 291 13,200 -1,268 Descending Indianapolis Center
Thu 10:31:04 PM 39.5225 -83.2467 246° West 258 297 11,900 -1,143 Descending Indianapolis Center
Thu 10:31:27 PM 39.5119 -83.2817 249° West 259 298 11,600 -1,180 Descending Indianapolis Center
Thu 10:32:05 PM 39.4928 -83.3311 243° Southwest 255 293 10,700 -1,273 Descending Indianapolis Center
Thu 10:33:06 PM 39.4639 -83.4136 246° West 250 288 9,500 -836 Descending Indianapolis Center
Thu 10:34:07 PM 39.4397 -83.4922 248° West 238 274 9,000 -197 Descending Indianapolis Center
Thu 10:35:08 PM 39.4125 -83.5689 245° Southwest 232 267 9,100 49 Climbing Indianapolis Center
Thu 10:36:09 PM 39.3831 -83.6481 244° Southwest 239 275 9,100  Level Indianapolis Center
Thu 10:37:10 PM 39.3550 -83.7286 246° West 242 278 9,100 -492 Level Indianapolis Center
Thu 10:38:11 PM 39.3283 -83.8058 246° West 237 273 8,100 -1,131 Descending Indianapolis Center
Thu 10:39:12 PM 39.3019 -83.8822 246° West 232 267 6,800 -984 Descending Indianapolis Center
Thu 10:40:13 PM 39.2778 -83.9597 248° West 231 266 6,100 -344 Descending Indianapolis Center
Thu 10:41:14 PM 39.2558 -84.0361 250° West 228 262 6,100  Level Indianapolis Center
Thu 10:42:15 PM 39.2278 -84.1200 247° West 228 262 6,100 -492 Level Indianapolis Center
Thu 10:43:16 PM 39.2061 -84.1850 247° West 224 258 5,100 -537 Descending Indianapolis Center
Thu 10:44:18 PM 39.1844 -84.2617 250° West 224 258 5,000  Descending Indianapolis Center
Thu 10:45:19 PM 39.1597 -84.3350 247° West 223 257 5,100 -197 Climbing Indianapolis Center
Thu 10:46:20 PM 39.1333 -84.4056 244° Southwest 220 253 4,600 -836 Descending Indianapolis Center
Thu 10:47:21 PM 39.1297 -84.4850 267° West 218 251 3,400 -738 Descending Indianapolis Center
Thu 10:48:22 PM 39.1236 -84.5711 265° West 216 249 3,100 -623 Descending Indianapolis Center
Thu 10:49:07 PM 39.1167 -84.6167 259° West 184 212 2,300 -743 Descending Cincinnati TRACON
Thu 10:50:07 PM 39.1167 -84.6667 270° West 122 140 1,800 -500 Descending Cincinnati TRACON
Thu 10:51:07 PM 39.0833 -84.6833 201° Southwest 95 109 1,300 -500 Descending Cincinnati TRACON
Thu 10:53:00 PM 39.0488 -84.6678 165° South  Level Estimated

Login

Don't have an account? Register now (free) for customized features, flight alerts, and more!